sensor_id;sensor_type;location;lat;lon;timestamp;pressure;altitude;pressure_sealevel;temperature;humidity
6778;BME280;3426;52.244;10.534;2023-02-10T00:01:35;102475.00;;;5.58;51.31
6778;BME280;3426;52.244;10.534;2023-02-10T00:04:02;102481.03;;;5.82;51.74
6778;BME280;3426;52.244;10.534;2023-02-10T00:06:30;102481.09;;;5.65;51.79
6778;BME280;3426;52.244;10.534;2023-02-10T00:08:58;102484.34;;;6.21;50.09
6778;BME280;3426;52.244;10.534;2023-02-10T00:11:26;102482.53;;;6.26;50.41
6778;BME280;3426;52.244;10.534;2023-02-10T00:14:12;102489.47;;;6.34;50.46
6778;BME280;3426;52.244;10.534;2023-02-10T00:16:39;102488.59;;;6.38;50.03
6778;BME280;3426;52.244;10.534;2023-02-10T00:19:06;102487.16;;;5.82;52.31
6778;BME280;3426;52.244;10.534;2023-02-10T00:21:32;102490.75;;;5.68;52.36
6778;BME280;3426;52.244;10.534;2023-02-10T00:23:59;102494.81;;;6.30;49.82
6778;BME280;3426;52.244;10.534;2023-02-10T00:26:26;102496.63;;;6.17;50.56
6778;BME280;3426;52.244;10.534;2023-02-10T00:28:52;102495.59;;;6.43;50.32
6778;BME280;3426;52.244;10.534;2023-02-10T00:31:19;102506.03;;;6.50;49.96
6778;BME280;3426;52.244;10.534;2023-02-10T00:33:45;102503.31;;;6.64;50.51
6778;BME280;3426;52.244;10.534;2023-02-10T00:36:13;102510.31;;;6.65;50.08
6778;BME280;3426;52.244;10.534;2023-02-10T00:38:41;102515.09;;;6.09;52.14
6778;BME280;3426;52.244;10.534;2023-02-10T00:43:35;102513.28;;;6.19;52.55
6778;BME280;3426;52.244;10.534;2023-02-10T00:46:03;102516.94;;;5.88;54.08
6778;BME280;3426;52.244;10.534;2023-02-10T00:48:30;102515.16;;;5.90;54.61
6778;BME280;3426;52.244;10.534;2023-02-10T00:50:56;102516.84;;;6.14;53.61
6778;BME280;3426;52.244;10.534;2023-02-10T00:53:23;102514.06;;;6.32;53.13
6778;BME280;3426;52.244;10.534;2023-02-10T00:55:49;102504.78;;;5.64;54.67
6778;BME280;3426;52.244;10.534;2023-02-10T00:58:16;102498.34;;;6.23;53.99
6778;BME280;3426;52.244;10.534;2023-02-10T01:00:42;102503.03;;;5.59;55.04
6778;BME280;3426;52.244;10.534;2023-02-10T01:03:09;102508.25;;;5.66;55.78
6778;BME280;3426;52.244;10.534;2023-02-10T01:05:36;102514.28;;;5.95;55.94
6778;BME280;3426;52.244;10.534;2023-02-10T01:08:02;102513.59;;;5.44;58.25
6778;BME280;3426;52.244;10.534;2023-02-10T01:10:29;102513.41;;;5.99;56.36
6778;BME280;3426;52.244;10.534;2023-02-10T01:12:55;102513.38;;;6.02;56.45
6778;BME280;3426;52.244;10.534;2023-02-10T01:15:22;102518.72;;;5.78;57.43
6778;BME280;3426;52.244;10.534;2023-02-10T01:17:48;102522.94;;;6.20;57.11
6778;BME280;3426;52.244;10.534;2023-02-10T01:20:14;102518.53;;;6.18;57.87
6778;BME280;3426;52.244;10.534;2023-02-10T01:22:41;102523.09;;;5.82;59.14
6778;BME280;3426;52.244;10.534;2023-02-10T01:25:07;102517.06;;;5.49;60.83
6778;BME280;3426;52.244;10.534;2023-02-10T01:27:34;102530.13;;;5.75;61.42
6778;BME280;3426;52.244;10.534;2023-02-10T01:30:00;102525.88;;;5.42;61.76
6778;BME280;3426;52.244;10.534;2023-02-10T01:32:27;102526.56;;;5.90;61.50
6778;BME280;3426;52.244;10.534;2023-02-10T01:34:54;102523.09;;;5.82;61.24
6778;BME280;3426;52.244;10.534;2023-02-10T01:37:21;102527.66;;;5.31;65.13
6778;BME280;3426;52.244;10.534;2023-02-10T01:39:47;102513.38;;;6.01;63.05
6778;BME280;3426;52.244;10.534;2023-02-10T01:42:15;102530.34;;;5.00;67.35
6778;BME280;3426;52.244;10.534;2023-02-10T01:47:08;102532.00;;;5.50;64.46
6778;BME280;3426;52.244;10.534;2023-02-10T01:49:39;102535.44;;;5.55;66.10
6778;BME280;3426;52.244;10.534;2023-02-10T01:52:09;102534.56;;;5.59;64.67
6778;BME280;3426;52.244;10.534;2023-02-10T01:54:44;102529.38;;;5.50;66.31
6778;BME280;3426;52.244;10.534;2023-02-10T01:57:11;102534.47;;;5.96;64.41
6778;BME280;3426;52.244;10.534;2023-02-10T01:59:39;102539.09;;;5.16;66.50
6778;BME280;3426;52.244;10.534;2023-02-10T02:02:08;102534.72;;;4.89;67.63
6778;BME280;3426;52.244;10.534;2023-02-10T02:04:40;102528.16;;;6.23;62.06
6778;BME280;3426;52.244;10.534;2023-02-10T02:07:08;102539.88;;;5.52;64.45
6778;BME280;3426;52.244;10.534;2023-02-10T02:09:35;102537.31;;;5.17;66.41
6778;BME280;3426;52.244;10.534;2023-02-10T02:12:21;102534.53;;;5.75;65.25
6778;BME280;3426;52.244;10.534;2023-02-10T02:15:01;102542.50;;;5.44;64.86
6778;BME280;3426;52.244;10.534;2023-02-10T02:17:39;102546.06;;;5.29;66.79
6778;BME280;3426;52.244;10.534;2023-02-10T02:23:26;102534.63;;;5.43;65.52
6778;BME280;3426;52.244;10.534;2023-02-10T02:39:41;102541.63;;;5.51;66.50
6778;BME280;3426;52.244;10.534;2023-02-10T02:44:46;102546.97;;;5.07;69.31
6778;BME280;3426;52.244;10.534;2023-02-10T02:47:23;102539.94;;;5.20;68.56
6778;BME280;3426;52.244;10.534;2023-02-10T02:58:06;102534.63;;;5.47;67.64
6778;BME280;3426;52.244;10.534;2023-02-10T03:00:37;102541.69;;;5.24;68.33
6778;BME280;3426;52.244;10.534;2023-02-10T03:03:05;102537.94;;;6.01;64.95
6778;BME280;3426;52.244;10.534;2023-02-10T03:05:32;102533.75;;;5.38;67.54
6778;BME280;3426;52.244;10.534;2023-02-10T03:07:59;102531.75;;;6.13;65.24
6778;BME280;3426;52.244;10.534;2023-02-10T03:10:25;102534.59;;;5.55;66.59
6778;BME280;3426;52.244;10.534;2023-02-10T03:12:52;102530.94;;;5.90;65.81
6778;BME280;3426;52.244;10.534;2023-02-10T03:15:19;102536.31;;;5.65;67.47
6778;BME280;3426;52.244;10.534;2023-02-10T03:17:45;102530.84;;;6.13;65.04
6778;BME280;3426;52.244;10.534;2023-02-10T03:20:12;102529.22;;;5.87;65.25
6778;BME280;3426;52.244;10.534;2023-02-10T03:22:38;102533.75;;;5.41;67.54
6778;BME280;3426;52.244;10.534;2023-02-10T03:25:07;102551.34;;;5.17;69.62
6778;BME280;3426;52.244;10.534;2023-02-10T03:27:33;102552.19;;;5.09;69.07
6778;BME280;3426;52.244;10.534;2023-02-10T03:30:00;102545.97;;;5.55;67.77
6778;BME280;3426;52.244;10.534;2023-02-10T03:32:26;102543.19;;;6.03;66.44
6778;BME280;3426;52.244;10.534;2023-02-10T03:34:53;102541.50;;;5.82;66.25
6778;BME280;3426;52.244;10.534;2023-02-10T03:37:19;102543.44;;;5.28;68.74
6778;BME280;3426;52.244;10.534;2023-02-10T03:39:45;102532.75;;;5.77;66.72
6778;BME280;3426;52.244;10.534;2023-02-10T03:42:13;102526.25;;;6.45;64.83
6778;BME280;3426;52.244;10.534;2023-02-10T03:44:40;102540.56;;;6.03;64.65
6778;BME280;3426;52.244;10.534;2023-02-10T03:47:06;102545.09;;;5.63;66.64
6778;BME280;3426;52.244;10.534;2023-02-10T03:49:33;102539.53;;;6.24;65.90
6778;BME280;3426;52.244;10.534;2023-02-10T03:51:59;102544.09;;;5.94;64.65
6778;BME280;3426;52.244;10.534;2023-02-10T03:54:26;102547.75;;;5.47;68.06
6778;BME280;3426;52.244;10.534;2023-02-10T03:56:52;102548.38;;;6.17;65.15
6778;BME280;3426;52.244;10.534;2023-02-10T03:59:19;102548.50;;;5.86;67.29
6778;BME280;3426;52.244;10.534;2023-02-10T04:01:45;102551.09;;;5.95;65.56
6778;BME280;3426;52.244;10.534;2023-02-10T04:04:12;102555.53;;;5.78;66.22
6778;BME280;3426;52.244;10.534;2023-02-10T04:06:38;102560.00;;;5.62;67.20
6778;BME280;3426;52.244;10.534;2023-02-10T04:09:05;102546.66;;;6.06;64.87
6778;BME280;3426;52.244;10.534;2023-02-10T04:11:31;102567.03;;;5.42;66.76
6778;BME280;3426;52.244;10.534;2023-02-10T04:13:58;102549.34;;;6.02;65.48
6778;BME280;3426;52.244;10.534;2023-02-10T04:16:24;102559.09;;;5.65;67.01
6778;BME280;3426;52.244;10.534;2023-02-10T04:18:54;102547.34;;;6.42;64.25
6778;BME280;3426;52.244;10.534;2023-02-10T04:21:20;102549.22;;;6.20;64.86
6778;BME280;3426;52.244;10.534;2023-02-10T04:23:47;102546.75;;;5.83;65.34
6778;BME280;3426;52.244;10.534;2023-02-10T04:26:13;102547.38;;;6.37;63.61
6778;BME280;3426;52.244;10.534;2023-02-10T04:28:40;102545.88;;;5.84;65.00
6778;BME280;3426;52.244;10.534;2023-02-10T04:31:06;102547.63;;;5.78;65.73
6778;BME280;3426;52.244;10.534;2023-02-10T04:33:34;102542.25;;;6.11;64.94
6778;BME280;3426;52.244;10.534;2023-02-10T04:36:00;102552.94;;;5.70;65.77
6778;BME280;3426;52.244;10.534;2023-02-10T04:38:29;102539.66;;;6.05;65.13
6778;BME280;3426;52.244;10.534;2023-02-10T04:40:56;102547.25;;;6.56;63.47
6778;BME280;3426;52.244;10.534;2023-02-10T04:43:22;102545.97;;;5.58;65.04
6778;BME280;3426;52.244;10.534;2023-02-10T04:45:50;102548.69;;;5.19;68.03
6778;BME280;3426;52.244;10.534;2023-02-10T04:48:16;102540.50;;;6.12;65.67
6778;BME280;3426;52.244;10.534;2023-02-10T04:50:43;102551.31;;;5.14;67.58
6778;BME280;3426;52.244;10.534;2023-02-10T04:53:10;102539.03;;;5.36;67.00
6778;BME280;3426;52.244;10.534;2023-02-10T04:55:36;102541.53;;;5.73;67.30
6778;BME280;3426;52.244;10.534;2023-02-10T04:58:03;102522.19;;;5.91;66.18
6778;BME280;3426;52.244;10.534;2023-02-10T05:00:29;102523.56;;;6.51;63.31
6778;BME280;3426;52.244;10.534;2023-02-10T05:02:56;102538.19;;;5.13;67.19
6778;BME280;3426;52.244;10.534;2023-02-10T05:05:22;102548.72;;;5.13;68.06
6778;BME280;3426;52.244;10.534;2023-02-10T05:07:51;102545.81;;;6.03;64.62
6778;BME280;3426;52.244;10.534;2023-02-10T05:10:18;102550.34;;;5.63;66.29
6778;BME280;3426;52.244;10.534;2023-02-10T05:12:45;102550.25;;;5.84;65.57
6778;BME280;3426;52.244;10.534;2023-02-10T05:15:11;102543.25;;;5.86;67.16
6778;BME280;3426;52.244;10.534;2023-02-10T05:17:40;102541.53;;;5.79;65.62
6778;BME280;3426;52.244;10.534;2023-02-10T05:20:07;102552.63;;;6.37;64.56
6778;BME280;3426;52.244;10.534;2023-02-10T05:22:35;102554.31;;;6.48;62.62
6778;BME280;3426;52.244;10.534;2023-02-10T05:25:02;102549.91;;;6.51;62.40
6778;BME280;3426;52.244;10.534;2023-02-10T05:27:29;102538.78;;;6.05;64.47
6778;BME280;3426;52.244;10.534;2023-02-10T05:29:55;102550.25;;;5.93;64.68
6778;BME280;3426;52.244;10.534;2023-02-10T05:32:21;102554.69;;;5.67;66.17
6778;BME280;3426;52.244;10.534;2023-02-10T05:34:48;102557.84;;;6.47;63.11
6778;BME280;3426;52.244;10.534;2023-02-10T05:37:14;102550.97;;;6.21;63.92
6778;BME280;3426;52.244;10.534;2023-02-10T05:39:41;102548.84;;;6.74;62.45
6778;BME280;3426;52.244;10.534;2023-02-10T05:42:08;102554.06;;;6.83;61.94
6778;BME280;3426;52.244;10.534;2023-02-10T05:44:35;102550.78;;;6.53;63.54
6778;BME280;3426;52.244;10.534;2023-02-10T05:47:01;102558.97;;;6.07;64.57
6778;BME280;3426;52.244;10.534;2023-02-10T05:49:28;102554.34;;;6.45;63.63
6778;BME280;3426;52.244;10.534;2023-02-10T05:51:54;102551.41;;;6.83;61.71
6778;BME280;3426;52.244;10.534;2023-02-10T05:54:20;102554.75;;;7.02;60.56
6778;BME280;3426;52.244;10.534;2023-02-10T05:56:48;102569.00;;;6.78;61.27
6778;BME280;3426;52.244;10.534;2023-02-10T05:59:16;102582.50;;;6.29;62.84
6778;BME280;3426;52.244;10.534;2023-02-10T06:01:43;102580.53;;;6.66;62.07
6778;BME280;3426;52.244;10.534;2023-02-10T06:04:10;102592.53;;;6.98;61.45
6778;BME280;3426;52.244;10.534;2023-02-10T06:06:37;102594.03;;;6.00;64.27
6778;BME280;3426;52.244;10.534;2023-02-10T06:09:03;102603.31;;;6.69;63.26
6778;BME280;3426;52.244;10.534;2023-02-10T06:11:30;102596.44;;;6.49;62.92
6778;BME280;3426;52.244;10.534;2023-02-10T06:13:56;102586.56;;;6.79;61.96
6778;BME280;3426;52.244;10.534;2023-02-10T06:16:23;102587.69;;;6.44;63.84
6778;BME280;3426;52.244;10.534;2023-02-10T06:18:50;102581.94;;;5.50;65.73
6778;BME280;3426;52.244;10.534;2023-02-10T06:21:16;102592.13;;;6.33;64.01
6778;BME280;3426;52.244;10.534;2023-02-10T06:23:43;102597.41;;;6.36;63.32
6778;BME280;3426;52.244;10.534;2023-02-10T06:26:10;102599.38;;;5.76;66.03
6778;BME280;3426;52.244;10.534;2023-02-10T06:28:36;102610.75;;;5.75;66.35
6778;BME280;3426;52.244;10.534;2023-02-10T06:31:03;102627.34;;;5.89;66.09
6778;BME280;3426;52.244;10.534;2023-02-10T06:33:30;102625.75;;;5.39;66.15
6778;BME280;3426;52.244;10.534;2023-02-10T06:35:56;102608.72;;;6.46;63.40
6778;BME280;3426;52.244;10.534;2023-02-10T06:38:22;102616.41;;;6.81;61.42
6778;BME280;3426;52.244;10.534;2023-02-10T06:40:49;102622.13;;;5.83;64.78
6778;BME280;3426;52.244;10.534;2023-02-10T06:43:15;102615.88;;;6.22;64.60
6778;BME280;3426;52.244;10.534;2023-02-10T06:45:43;102620.34;;;5.88;65.23
6778;BME280;3426;52.244;10.534;2023-02-10T06:48:09;102630.09;;;5.62;65.46
6778;BME280;3426;52.244;10.534;2023-02-10T06:50:36;102623.00;;;6.02;65.08
6778;BME280;3426;52.244;10.534;2023-02-10T06:53:04;102622.03;;;6.12;63.36
6778;BME280;3426;52.244;10.534;2023-02-10T06:55:30;102629.97;;;6.04;65.64
6778;BME280;3426;52.244;10.534;2023-02-10T06:58:00;102618.53;;;6.11;65.71
6778;BME280;3426;52.244;10.534;2023-02-10T07:00:26;102613.81;;;6.73;62.10
6778;BME280;3426;52.244;10.534;2023-02-10T07:02:53;102619.34;;;6.27;63.53
6778;BME280;3426;52.244;10.534;2023-02-10T07:05:20;102624.38;;;6.67;62.44
6778;BME280;3426;52.244;10.534;2023-02-10T07:07:46;102627.97;;;6.55;63.08
6778;BME280;3426;52.244;10.534;2023-02-10T07:10:13;102622.00;;;6.23;64.58
6778;BME280;3426;52.244;10.534;2023-02-10T07:12:39;102630.88;;;5.94;65.80
6778;BME280;3426;52.244;10.534;2023-02-10T07:15:06;102637.00;;;6.01;64.54
6778;BME280;3426;52.244;10.534;2023-02-10T07:17:33;102639.66;;;5.96;65.20
6778;BME280;3426;52.244;10.534;2023-02-10T07:19:59;102644.88;;;6.07;64.61
6778;BME280;3426;52.244;10.534;2023-02-10T07:22:25;102644.53;;;6.73;62.86
6778;BME280;3426;52.244;10.534;2023-02-10T07:24:52;102645.78;;;5.95;64.65
6778;BME280;3426;52.244;10.534;2023-02-10T07:27:18;102638.31;;;6.87;62.13
6778;BME280;3426;52.244;10.534;2023-02-10T07:29:45;102645.75;;;5.89;65.72
6778;BME280;3426;52.244;10.534;2023-02-10T07:32:12;102656.28;;;6.03;64.54
6778;BME280;3426;52.244;10.534;2023-02-10T07:34:38;102656.34;;;5.75;65.17
6778;BME280;3426;52.244;10.534;2023-02-10T07:37:07;102663.31;;;5.98;65.27
6778;BME280;3426;52.244;10.534;2023-02-10T07:39:34;102655.41;;;6.02;64.75
6778;BME280;3426;52.244;10.534;2023-02-10T07:42:01;102657.13;;;6.13;66.38
6778;BME280;3426;52.244;10.534;2023-02-10T07:44:27;102657.84;;;6.45;63.50
6778;BME280;3426;52.244;10.534;2023-02-10T07:46:54;102665.09;;;5.76;66.75
6778;BME280;3426;52.244;10.534;2023-02-10T07:49:20;102658.75;;;6.47;64.61
6778;BME280;3426;52.244;10.534;2023-02-10T07:51:47;102657.81;;;6.51;63.56
6778;BME280;3426;52.244;10.534;2023-02-10T07:54:13;102663.94;;;6.56;63.78
6778;BME280;3426;52.244;10.534;2023-02-10T07:56:40;102662.94;;;6.79;63.14
6778;BME280;3426;52.244;10.534;2023-02-10T07:59:06;102663.09;;;6.54;64.81
6778;BME280;3426;52.244;10.534;2023-02-10T08:01:33;102666.69;;;6.41;63.93
6778;BME280;3426;52.244;10.534;2023-02-10T08:04:04;102681.72;;;5.90;66.67
6778;BME280;3426;52.244;10.534;2023-02-10T08:06:30;102667.44;;;6.60;65.08
6778;BME280;3426;52.244;10.534;2023-02-10T08:08:56;102678.13;;;6.28;64.49
6778;BME280;3426;52.244;10.534;2023-02-10T08:11:23;102675.06;;;7.04;62.18
6778;BME280;3426;52.244;10.534;2023-02-10T08:13:49;102681.22;;;7.02;63.21
6778;BME280;3426;52.244;10.534;2023-02-10T08:16:16;102677.72;;;7.01;62.60
6778;BME280;3426;52.244;10.534;2023-02-10T08:18:43;102682.69;;;7.36;61.00
6778;BME280;3426;52.244;10.534;2023-02-10T08:21:09;102689.47;;;6.37;64.19
6778;BME280;3426;52.244;10.534;2023-02-10T08:23:36;102692.13;;;6.28;65.07
6778;BME280;3426;52.244;10.534;2023-02-10T08:26:10;102695.63;;;6.38;64.17
6778;BME280;3426;52.244;10.534;2023-02-10T08:28:39;102701.03;;;5.16;68.54
6778;BME280;3426;52.244;10.534;2023-02-10T08:31:07;102707.16;;;5.99;66.48
6778;BME280;3426;52.244;10.534;2023-02-10T08:33:36;102700.09;;;6.16;65.60
6778;BME280;3426;52.244;10.534;2023-02-10T08:36:15;102698.94;;;6.77;64.91
6778;BME280;3426;52.244;10.534;2023-02-10T08:38:42;102700.75;;;6.70;65.18
6778;BME280;3426;52.244;10.534;2023-02-10T08:41:08;102709.59;;;6.46;64.52
6778;BME280;3426;52.244;10.534;2023-02-10T08:43:35;102705.78;;;7.05;64.12
6778;BME280;3426;52.244;10.534;2023-02-10T08:46:03;102702.53;;;6.60;63.95
6778;BME280;3426;52.244;10.534;2023-02-10T08:48:30;102708.53;;;6.85;64.93
6778;BME280;3426;52.244;10.534;2023-02-10T08:50:57;102713.03;;;6.71;63.92
6778;BME280;3426;52.244;10.534;2023-02-10T08:53:24;102705.84;;;6.99;64.44
6778;BME280;3426;52.244;10.534;2023-02-10T08:55:57;102701.47;;;6.94;64.59
6778;BME280;3426;52.244;10.534;2023-02-10T08:58:26;102709.72;;;7.63;61.67
6778;BME280;3426;52.244;10.534;2023-02-10T09:00:52;102704.09;;;6.95;63.82
6778;BME280;3426;52.244;10.534;2023-02-10T09:03:19;102710.03;;;7.25;62.27
6778;BME280;3426;52.244;10.534;2023-02-10T09:05:46;102707.78;;;7.82;60.98
6778;BME280;3426;52.244;10.534;2023-02-10T09:08:16;102709.31;;;7.04;63.18
6778;BME280;3426;52.244;10.534;2023-02-10T09:10:44;102706.47;;;7.33;62.47
6778;BME280;3426;52.244;10.534;2023-02-10T09:13:11;102701.41;;;7.03;63.76
6778;BME280;3426;52.244;10.534;2023-02-10T09:15:39;102700.19;;;7.47;62.13
6778;BME280;3426;52.244;10.534;2023-02-10T09:18:07;102703.38;;;7.84;61.04
6778;BME280;3426;52.244;10.534;2023-02-10T09:20:34;102703.72;;;7.42;61.46
6778;BME280;3426;52.244;10.534;2023-02-10T09:23:01;102704.03;;;7.06;65.21
6778;BME280;3426;52.244;10.534;2023-02-10T09:25:28;102692.66;;;7.97;61.21
6778;BME280;3426;52.244;10.534;2023-02-10T09:27:55;102688.69;;;8.40;59.35
6778;BME280;3426;52.244;10.534;2023-02-10T09:30:24;102685.22;;;7.50;62.04
6778;BME280;3426;52.244;10.534;2023-02-10T09:32:52;102693.19;;;7.46;62.64
6778;BME280;3426;52.244;10.534;2023-02-10T09:35:18;102691.34;;;8.35;59.80
6778;BME280;3426;52.244;10.534;2023-02-10T09:37:45;102695.59;;;7.72;61.84
6778;BME280;3426;52.244;10.534;2023-02-10T09:40:33;102693.72;;;8.58;60.01
6778;BME280;3426;52.244;10.534;2023-02-10T09:43:27;102683.97;;;7.89;61.94
6778;BME280;3426;52.244;10.534;2023-02-10T09:46:10;102692.38;;;8.23;61.87
6778;BME280;3426;52.244;10.534;2023-02-10T09:51:15;102694.63;;;8.57;60.14
6778;BME280;3426;52.244;10.534;2023-02-10T09:53:47;102700.72;;;7.85;61.53
6778;BME280;3426;52.244;10.534;2023-02-10T09:56:17;102692.38;;;8.22;61.29
6778;BME280;3426;52.244;10.534;2023-02-10T09:58:48;102697.84;;;8.05;62.49
6778;BME280;3426;52.244;10.534;2023-02-10T10:06:30;102694.19;;;8.18;61.38
6778;BME280;3426;52.244;10.534;2023-02-10T10:11:47;102698.94;;;7.89;62.67
6778;BME280;3426;52.244;10.534;2023-02-10T10:24:58;102713.47;;;7.36;64.21
6778;BME280;3426;52.244;10.534;2023-02-10T10:30:28;102705.34;;;8.46;61.39
6778;BME280;3426;52.244;10.534;2023-02-10T10:33:00;102698.84;;;8.70;60.38
6778;BME280;3426;52.244;10.534;2023-02-10T10:35:34;102701.91;;;8.38;60.53
6778;BME280;3426;52.244;10.534;2023-02-10T10:38:23;102704.56;;;8.37;60.57
6778;BME280;3426;52.244;10.534;2023-02-10T10:40:55;102710.06;;;8.15;60.72
6778;BME280;3426;52.244;10.534;2023-02-10T10:43:38;102705.72;;;8.10;62.47
6778;BME280;3426;52.244;10.534;2023-02-10T10:46:18;102700.91;;;7.67;63.23
6778;BME280;3426;52.244;10.534;2023-02-10T10:48:47;102691.09;;;7.83;62.81
6778;BME280;3426;52.244;10.534;2023-02-10T10:51:13;102698.81;;;7.98;62.67
6778;BME280;3426;52.244;10.534;2023-02-10T10:56:34;102700.56;;;8.01;62.48
6778;BME280;3426;52.244;10.534;2023-02-10T10:59:34;102691.13;;;7.75;62.91
6778;BME280;3426;52.244;10.534;2023-02-10T11:02:16;102675.91;;;8.74;59.79
6778;BME280;3426;52.244;10.534;2023-02-10T11:04:43;102681.00;;;8.18;61.74
6778;BME280;3426;52.244;10.534;2023-02-10T11:07:12;102691.22;;;7.67;64.59
6778;BME280;3426;52.244;10.534;2023-02-10T11:09:49;102686.56;;;7.92;63.43
6778;BME280;3426;52.244;10.534;2023-02-10T11:12:21;102678.38;;;8.15;63.07
6778;BME280;3426;52.244;10.534;2023-02-10T11:14:51;102685.31;;;8.26;61.73
6778;BME280;3426;52.244;10.534;2023-02-10T11:19:55;102680.69;;;9.06;59.37
6778;BME280;3426;52.244;10.534;2023-02-10T11:22:22;102675.03;;;8.03;63.54
6778;BME280;3426;52.244;10.534;2023-02-10T11:24:52;102677.03;;;8.55;61.60
6778;BME280;3426;52.244;10.534;2023-02-10T11:27:19;102674.66;;;8.32;62.36
6778;BME280;3426;52.244;10.534;2023-02-10T11:34:54;102678.13;;;8.40;61.04
6778;BME280;3426;52.244;10.534;2023-02-10T11:37:34;102664.25;;;8.22;62.16
6778;BME280;3426;52.244;10.534;2023-02-10T11:40:05;102665.38;;;7.98;63.56
6778;BME280;3426;52.244;10.534;2023-02-10T11:42:46;102663.47;;;8.79;60.40
6778;BME280;3426;52.244;10.534;2023-02-10T11:48:17;102658.97;;;8.87;60.44
6778;BME280;3426;52.244;10.534;2023-02-10T11:50:44;102661.09;;;8.64;61.45
6778;BME280;3426;52.244;10.534;2023-02-10T11:53:26;102665.44;;;8.66;60.42
6778;BME280;3426;52.244;10.534;2023-02-10T12:10:26;102663.75;;;7.87;61.43
6778;BME280;3426;52.244;10.534;2023-02-10T12:13:17;102670.13;;;8.44;60.79
6778;BME280;3426;52.244;10.534;2023-02-10T12:16:12;102665.16;;;8.85;59.65
6778;BME280;3426;52.244;10.534;2023-02-10T12:21:55;102667.50;;;8.46;61.50
6778;BME280;3426;52.244;10.534;2023-02-10T12:27:10;102661.09;;;8.61;60.78
6778;BME280;3426;52.244;10.534;2023-02-10T12:51:30;102650.66;;;9.63;56.70
6778;BME280;3426;52.244;10.534;2023-02-10T13:00:09;102636.44;;;8.62;58.53
6778;BME280;3426;52.244;10.534;2023-02-10T13:02:54;102632.69;;;8.10;60.21
6778;BME280;3426;52.244;10.534;2023-02-10T13:05:30;102629.19;;;9.32;57.01
6778;BME280;3426;52.244;10.534;2023-02-10T13:08:02;102633.06;;;9.11;57.96
6778;BME280;3426;52.244;10.534;2023-02-10T13:13:03;102629.84;;;8.90;57.57
6778;BME280;3426;52.244;10.534;2023-02-10T13:15:40;102626.22;;;8.97;57.56
6778;BME280;3426;52.244;10.534;2023-02-10T13:18:28;102628.59;;;8.57;58.11
6778;BME280;3426;52.244;10.534;2023-02-10T13:23:42;102619.63;;;8.00;61.53
6778;BME280;3426;52.244;10.534;2023-02-10T13:29:08;102610.88;;;8.65;58.70
6778;BME280;3426;52.244;10.534;2023-02-10T13:32:03;102603.75;;;8.70;58.00
6778;BME280;3426;52.244;10.534;2023-02-10T13:34:35;102606.38;;;9.24;57.25
6778;BME280;3426;52.244;10.534;2023-02-10T13:39:51;102598.00;;;9.49;54.95
6778;BME280;3426;52.244;10.534;2023-02-10T13:42:37;102598.41;;;8.75;59.15
6778;BME280;3426;52.244;10.534;2023-02-10T13:45:25;102596.63;;;9.28;55.35
6778;BME280;3426;52.244;10.534;2023-02-10T13:47:56;102605.16;;;8.93;57.21
6778;BME280;3426;52.244;10.534;2023-02-10T13:50:28;102586.59;;;8.40;58.56
6778;BME280;3426;52.244;10.534;2023-02-10T13:53:04;102582.75;;;7.93;60.00
6778;BME280;3426;52.244;10.534;2023-02-10T14:00:42;102581.56;;;9.33;56.50
6778;BME280;3426;52.244;10.534;2023-02-10T14:05:38;102569.47;;;8.03;59.73
6778;BME280;3426;52.244;10.534;2023-02-10T14:08:42;102566.59;;;8.19;59.61
6778;BME280;3426;52.244;10.534;2023-02-10T14:11:37;102565.19;;;9.11;56.65
6778;BME280;3426;52.244;10.534;2023-02-10T14:16:49;102550.44;;;8.44;57.49
6778;BME280;3426;52.244;10.534;2023-02-10T14:21:47;102542.72;;;9.37;54.97
6778;BME280;3426;52.244;10.534;2023-02-10T14:24:18;102543.13;;;8.63;56.92
6778;BME280;3426;52.244;10.534;2023-02-10T14:26:56;102553.19;;;8.93;56.83
6778;BME280;3426;52.244;10.534;2023-02-10T14:29:25;102552.34;;;9.39;55.90
6778;BME280;3426;52.244;10.534;2023-02-10T14:31:56;102547.00;;;8.39;56.72
6778;BME280;3426;52.244;10.534;2023-02-10T14:42:14;102537.22;;;9.46;54.51
6778;BME280;3426;52.244;10.534;2023-02-10T14:47:21;102536.41;;;8.94;55.81
6778;BME280;3426;52.244;10.534;2023-02-10T14:49:51;102550.84;;;8.75;55.67
6778;BME280;3426;52.244;10.534;2023-02-10T14:52:24;102548.28;;;8.70;57.08
6778;BME280;3426;52.244;10.534;2023-02-10T15:00:31;102533.25;;;9.68;53.28
6778;BME280;3426;52.244;10.534;2023-02-10T15:02:59;102537.03;;;8.56;56.68
6778;BME280;3426;52.244;10.534;2023-02-10T15:05:33;102525.59;;;8.56;56.81
6778;BME280;3426;52.244;10.534;2023-02-10T15:08:01;102529.22;;;9.04;55.93
6778;BME280;3426;52.244;10.534;2023-02-10T15:10:32;102526.41;;;8.62;56.60
6778;BME280;3426;52.244;10.534;2023-02-10T15:13:01;102529.53;;;9.34;54.45
6778;BME280;3426;52.244;10.534;2023-02-10T15:15:33;102519.69;;;8.41;56.27
6778;BME280;3426;52.244;10.534;2023-02-10T15:18:10;102524.84;;;8.49;56.17
6778;BME280;3426;52.244;10.534;2023-02-10T15:20:39;102521.84;;;8.12;57.40
6778;BME280;3426;52.244;10.534;2023-02-10T15:23:15;102519.28;;;8.07;58.28
6778;BME280;3426;52.244;10.534;2023-02-10T15:26:00;102515.75;;;9.16;53.90
6778;BME280;3426;52.244;10.534;2023-02-10T15:28:28;102512.50;;;8.51;56.80
6778;BME280;3426;52.244;10.534;2023-02-10T15:31:02;102506.53;;;8.40;56.74
6778;BME280;3426;52.244;10.534;2023-02-10T15:33:32;102512.72;;;8.36;56.15
6778;BME280;3426;52.244;10.534;2023-02-10T15:38:59;102505.34;;;8.56;55.68
6778;BME280;3426;52.244;10.534;2023-02-10T15:41:45;102493.47;;;8.26;57.01
6778;BME280;3426;52.244;10.534;2023-02-10T15:44:35;102499.88;;;8.10;56.26
6778;BME280;3426;52.244;10.534;2023-02-10T15:49:44;102502.81;;;9.01;54.25
6778;BME280;3426;52.244;10.534;2023-02-10T15:52:40;102509.81;;;9.05;53.51
6778;BME280;3426;52.244;10.534;2023-02-10T15:55:17;102489.94;;;8.29;55.20
6778;BME280;3426;52.244;10.534;2023-02-10T15:57:44;102493.75;;;8.08;56.27
6778;BME280;3426;52.244;10.534;2023-02-10T16:02:48;102485.28;;;8.46;54.38
6778;BME280;3426;52.244;10.534;2023-02-10T16:05:15;102478.66;;;8.74;54.18
6778;BME280;3426;52.244;10.534;2023-02-10T16:07:42;102479.22;;;8.41;54.69
6778;BME280;3426;52.244;10.534;2023-02-10T16:10:21;102489.56;;;8.53;54.01